Terminal Aerodrome Forecast
Issued by NWS

Home | Current Version | Previous Version | Text Only | Print | Product List | Glossary On
Versions: 1 2 3 4 5 6 7 8 9 10 11 12 13 14 15 16 17 18 19 20 21 22 23 24 25 26 27
000
FTUS46 KOTX 192330
TAFPUW
TAF
KPUW 192330Z 2000/2024 35005KT P6SM OVC100
     FM200500 25012KT P6SM -RA SCT030 OVC045
     FM200900 24017G24KT 5SM RA BR BKN030 OVC040
     FM201200 24006G30KT P6SM VCSH BKN035 OVC045
     FM202000 25023G30KT P6SM BKN100=

USA.gov is the U.S. government's official web portal to all federal, state and local government web resources and services.